createdAt,value
2017-08-16T00:00:27.358Z,0
2017-08-16T00:01:37.210Z,0
2017-08-16T00:02:46.093Z,0
2017-08-16T00:03:55.127Z,0
2017-08-16T00:05:04.666Z,0
2017-08-16T00:06:14.197Z,0
2017-08-16T00:07:23.404Z,0
2017-08-16T00:08:32.610Z,0
2017-08-16T00:09:42.522Z,0
2017-08-16T00:10:52.049Z,0
2017-08-16T00:12:00.933Z,0
2017-08-16T00:13:10.784Z,0
2017-08-16T00:14:20.310Z,0
2017-08-16T00:15:30.139Z,0
2017-08-16T00:16:39.345Z,0
2017-08-16T00:17:49.195Z,0
2017-08-16T00:18:59.067Z,0
2017-08-16T00:20:08.926Z,0
2017-08-16T00:21:18.461Z,0
2017-08-16T00:22:27.986Z,0
2017-08-16T00:23:37.193Z,0
2017-08-16T00:24:46.398Z,0
2017-08-16T00:25:55.602Z,0
2017-08-16T00:27:05.330Z,0
2017-08-16T00:28:14.537Z,0
2017-08-16T00:29:23.741Z,0
2017-08-16T00:30:32.950Z,0
2017-08-16T00:31:41.834Z,0
2017-08-16T00:32:50.978Z,0
2017-08-16T00:34:00.828Z,0
2017-08-16T00:35:10.357Z,0
2017-08-16T00:36:20.535Z,0
2017-08-16T00:37:30.394Z,0
2017-08-16T00:38:39.900Z,0
2017-08-16T00:39:50.081Z,0
2017-08-16T00:40:59.933Z,0
2017-08-16T00:42:09.793Z,0
2017-08-16T00:43:19.646Z,0
2017-08-16T00:44:29.473Z,0
2017-08-16T00:45:38.998Z,0
2017-08-16T00:46:48.855Z,0
2017-08-16T00:47:57.739Z,0
2017-08-16T00:49:07.912Z,0
2017-08-16T00:50:18.231Z,0
2017-08-16T00:51:27.760Z,0
2017-08-16T00:52:37.615Z,0
2017-08-16T00:53:47.147Z,0
2017-08-16T00:54:57.321Z,0
2017-08-16T00:56:07.295Z,0
2017-08-16T00:57:16.825Z,0
2017-08-16T00:58:26.032Z,0
2017-08-16T00:59:35.890Z,0
2017-08-16T01:00:45.418Z,0
2017-08-16T01:01:54.453Z,0
2017-08-16T01:03:03.983Z,0
2017-08-16T01:04:13.193Z,0
2017-08-16T01:05:22.722Z,0
2017-08-16T01:06:32.249Z,0
2017-08-16T01:07:41.606Z,0
2017-08-16T01:08:50.808Z,0
2017-08-16T01:10:00.664Z,0
2017-08-16T01:11:10.517Z,0
2017-08-16T01:12:20.044Z,0
2017-08-16T01:13:29.998Z,0
2017-08-16T01:14:38.888Z,0
2017-08-16T01:15:48.094Z,0
2017-08-16T01:16:57.627Z,0
2017-08-16T01:18:07.479Z,0
2017-08-16T01:19:16.514Z,0
2017-08-16T01:20:26.041Z,0
2017-08-16T01:21:35.894Z,0
2017-08-16T01:22:46.074Z,0
2017-08-16T01:23:55.601Z,0
2017-08-16T01:25:04.960Z,0
2017-08-16T01:26:15.132Z,0
2017-08-16T01:27:24.983Z,0
2017-08-16T01:28:34.512Z,0
2017-08-16T01:29:43.718Z,0
2017-08-16T01:30:53.823Z,0
2017-08-16T01:32:03.679Z,0
2017-08-16T01:33:12.889Z,0
2017-08-16T01:34:21.777Z,0
2017-08-16T01:35:31.309Z,0
2017-08-16T01:36:40.193Z,0
2017-08-16T01:37:49.718Z,0
2017-08-16T01:38:59.897Z,0
2017-08-16T01:40:09.429Z,0
2017-08-16T01:41:18.957Z,0
2017-08-16T01:42:29.155Z,0
2017-08-16T01:43:38.372Z,0
2017-08-16T01:44:47.900Z,0
2017-08-16T01:45:57.756Z,0
2017-08-16T01:47:07.290Z,0
2017-08-16T01:48:16.694Z,0
2017-08-16T01:49:25.581Z,0
2017-08-16T01:50:35.105Z,0
2017-08-16T01:51:44.314Z,0
2017-08-16T01:52:54.514Z,0
2017-08-16T01:54:03.721Z,0
2017-08-16T01:55:12.926Z,0
2017-08-16T01:56:22.131Z,0
2017-08-16T01:57:32.306Z,0
2017-08-16T01:58:41.834Z,0
2017-08-16T01:59:51.291Z,0
2017-08-16T02:01:00.515Z,0
2017-08-16T02:02:10.044Z,0
2017-08-16T02:03:19.575Z,0
2017-08-16T02:04:29.103Z,0
2017-08-16T02:05:39.057Z,0
2017-08-16T02:06:49.229Z,0
2017-08-16T02:07:58.757Z,0
2017-08-16T02:09:07.963Z,0
2017-08-16T02:10:17.492Z,0
2017-08-16T02:11:27.546Z,0
2017-08-16T02:12:37.072Z,0
2017-08-16T02:13:46.950Z,0
2017-08-16T02:14:56.474Z,0
2017-08-16T02:16:05.681Z,0
2017-08-16T02:17:14.988Z,0
2017-08-16T02:18:25.159Z,0
2017-08-16T02:19:34.361Z,0
2017-08-16T02:20:43.570Z,0
2017-08-16T02:21:52.451Z,0
2017-08-16T02:23:02.030Z,0
2017-08-16T02:24:11.882Z,0
2017-08-16T02:25:20.764Z,0
2017-08-16T02:26:29.976Z,0
2017-08-16T02:27:39.569Z,0
2017-08-16T02:28:49.298Z,0
2017-08-16T02:29:58.506Z,0
2017-08-16T02:31:07.718Z,0
2017-08-16T02:32:17.585Z,0
2017-08-16T02:33:27.116Z,0
2017-08-16T02:34:37.341Z,0
2017-08-16T02:35:46.551Z,0
2017-08-16T02:36:56.081Z,0
2017-08-16T02:38:05.296Z,0
2017-08-16T02:39:15.152Z,0
2017-08-16T02:40:24.454Z,0
2017-08-16T02:41:33.992Z,0
2017-08-16T02:42:43.199Z,0
2017-08-16T02:43:52.739Z,0
2017-08-16T02:45:02.277Z,0
2017-08-16T02:46:12.482Z,0
2017-08-16T02:47:22.021Z,0
2017-08-16T02:48:31.560Z,0
2017-08-16T02:49:41.420Z,0
2017-08-16T02:50:51.284Z,0
2017-08-16T02:52:00.920Z,0
2017-08-16T02:53:10.776Z,0
2017-08-16T02:54:20.630Z,0
2017-08-16T02:55:29.839Z,0
2017-08-16T02:56:39.381Z,0
2017-08-16T02:57:49.064Z,0
2017-08-16T02:58:58.594Z,0
2017-08-16T03:00:08.772Z,0
2017-08-16T03:01:17.980Z,0
2017-08-16T03:02:27.188Z,0
2017-08-16T03:03:36.601Z,0
2017-08-16T03:04:46.452Z,0
2017-08-16T03:05:55.658Z,0
2017-08-16T03:07:05.507Z,0
2017-08-16T03:08:15.361Z,0
2017-08-16T03:09:24.987Z,0
2017-08-16T03:10:34.837Z,0
2017-08-16T03:11:44.053Z,0
2017-08-16T03:12:53.258Z,0
2017-08-16T03:14:02.467Z,0
2017-08-16T03:15:12.618Z,0
2017-08-16T03:16:21.829Z,0
2017-08-16T03:17:31.359Z,0
2017-08-16T03:18:40.889Z,0
2017-08-16T03:19:50.744Z,0
2017-08-16T03:21:00.894Z,0
2017-08-16T03:22:10.100Z,0
2017-08-16T03:23:19.335Z,0
2017-08-16T03:24:29.510Z,0
2017-08-16T03:25:39.366Z,0
2017-08-16T03:26:49.273Z,0
2017-08-16T03:27:58.475Z,0
2017-08-16T03:29:07.679Z,0
2017-08-16T03:30:16.891Z,0
2017-08-16T03:31:27.068Z,0
2017-08-16T03:32:36.896Z,0
2017-08-16T03:33:46.439Z,0
2017-08-16T03:34:56.615Z,0
2017-08-16T03:36:06.145Z,0
2017-08-16T03:37:15.670Z,0
2017-08-16T03:38:25.029Z,0
2017-08-16T03:39:34.562Z,0
2017-08-16T03:40:44.414Z,4
2017-08-16T03:41:53.622Z,4
2017-08-16T03:43:03.485Z,0
2017-08-16T03:44:13.387Z,4
2017-08-16T03:45:22.591Z,4
2017-08-16T03:46:32.127Z,4
2017-08-16T03:47:41.016Z,8
2017-08-16T03:48:50.872Z,4
2017-08-16T03:50:00.129Z,8
2017-08-16T03:51:09.669Z,12
2017-08-16T03:52:18.880Z,12
2017-08-16T03:53:28.408Z,16
2017-08-16T03:54:37.939Z,16
2017-08-16T03:55:47.845Z,20
2017-08-16T03:56:57.057Z,20
2017-08-16T03:58:05.942Z,24
2017-08-16T03:59:16.114Z,28
2017-08-16T04:00:25.645Z,32
2017-08-16T04:01:35.181Z,40
2017-08-16T04:02:45.366Z,40
2017-08-16T04:03:54.568Z,44
2017-08-16T04:05:04.095Z,48
2017-08-16T04:06:12.981Z,52
2017-08-16T04:07:22.235Z,56
2017-08-16T04:08:31.768Z,60
2017-08-16T04:09:41.622Z,64
2017-08-16T04:10:51.804Z,68
2017-08-16T04:12:01.334Z,72
2017-08-16T04:13:10.690Z,76
2017-08-16T04:14:19.571Z,80
2017-08-16T04:15:29.102Z,84
2017-08-16T04:16:38.954Z,96
2017-08-16T04:17:48.488Z,104
2017-08-16T04:18:58.487Z,108
2017-08-16T04:20:07.708Z,116
2017-08-16T04:21:16.917Z,120
2017-08-16T04:22:25.801Z,128
2017-08-16T04:23:35.005Z,136
2017-08-16T04:24:45.008Z,144
2017-08-16T04:25:54.536Z,148
2017-08-16T04:27:04.393Z,152
2017-08-16T04:28:13.275Z,156
2017-08-16T04:29:23.128Z,164
2017-08-16T04:30:32.430Z,172
2017-08-16T04:31:41.638Z,188
2017-08-16T04:32:50.845Z,200
2017-08-16T04:34:00.049Z,212
2017-08-16T04:35:09.613Z,220
2017-08-16T04:36:19.147Z,228
2017-08-16T04:37:29.004Z,236
2017-08-16T04:38:39.179Z,248
2017-08-16T04:39:49.029Z,256
2017-08-16T04:40:58.558Z,256
2017-08-16T04:42:07.444Z,252
2017-08-16T04:43:16.981Z,260
2017-08-16T04:44:26.838Z,268
2017-08-16T04:45:36.366Z,280
2017-08-16T04:46:45.571Z,296
2017-08-16T04:47:54.927Z,316
2017-08-16T04:49:04.458Z,344
2017-08-16T04:50:14.311Z,376
2017-08-16T04:51:23.520Z,412
2017-08-16T04:52:33.050Z,440
2017-08-16T04:53:42.415Z,448
2017-08-16T04:54:52.268Z,440
2017-08-16T04:56:01.148Z,448
2017-08-16T04:57:10.680Z,488
2017-08-16T04:58:20.222Z,524
2017-08-16T04:59:29.755Z,528
2017-08-16T05:00:39.286Z,588
2017-08-16T05:01:48.494Z,604
2017-08-16T05:02:58.401Z,640
2017-08-16T05:04:08.294Z,708
2017-08-16T05:05:17.651Z,748
2017-08-16T05:06:26.535Z,804
2017-08-16T05:07:36.069Z,864
2017-08-16T05:08:45.625Z,916
2017-08-16T05:09:54.874Z,948
2017-08-16T05:11:04.875Z,948
2017-08-16T05:12:13.761Z,1008
2017-08-16T05:13:22.650Z,1004
2017-08-16T05:14:32.179Z,1024
2017-08-16T05:15:41.713Z,1016
2017-08-16T05:16:51.017Z,1016
2017-08-16T05:18:00.548Z,1000
2017-08-16T05:19:10.432Z,1016
2017-08-16T05:20:20.623Z,984
2017-08-16T05:21:29.836Z,968
2017-08-16T05:22:39.554Z,952
2017-08-16T05:23:49.082Z,976
2017-08-16T05:24:58.629Z,1016
2017-08-16T05:26:08.160Z,1016
2017-08-16T05:27:17.394Z,1016
2017-08-16T05:28:27.227Z,1040
2017-08-16T05:29:37.206Z,1052
2017-08-16T05:30:46.112Z,1052
2017-08-16T05:31:55.961Z,1080
2017-08-16T05:33:05.173Z,1012
2017-08-16T05:34:14.408Z,944
2017-08-16T05:35:23.939Z,892
2017-08-16T05:36:32.873Z,852
2017-08-16T05:37:42.734Z,832
2017-08-16T05:38:51.961Z,852
2017-08-16T05:40:01.817Z,872
2017-08-16T05:41:11.351Z,892
2017-08-16T05:42:20.240Z,920
2017-08-16T05:43:30.117Z,952
2017-08-16T05:44:39.322Z,980
2017-08-16T05:45:48.531Z,1000
2017-08-16T05:46:58.726Z,1024
2017-08-16T05:48:08.260Z,1044
2017-08-16T05:49:18.114Z,1052
2017-08-16T05:50:27.974Z,1052
2017-08-16T05:51:37.530Z,1048
2017-08-16T05:52:46.738Z,1036
2017-08-16T05:53:55.943Z,1052
2017-08-16T05:55:05.472Z,1112
2017-08-16T05:56:15.661Z,1148
2017-08-16T05:57:25.524Z,1196
2017-08-16T05:58:34.742Z,1204
2017-08-16T05:59:44.643Z,1272
2017-08-16T06:00:54.818Z,1376
2017-08-16T06:02:04.676Z,1444
2017-08-16T06:03:14.530Z,1680
2017-08-16T06:04:24.081Z,1536
2017-08-16T06:05:34.087Z,1588
2017-08-16T06:06:43.622Z,1548
2017-08-16T06:07:53.474Z,1660
2017-08-16T06:09:03.329Z,2128
2017-08-16T06:10:13.302Z,1664
2017-08-16T06:11:22.514Z,1548
2017-08-16T06:12:32.369Z,1764
2017-08-16T06:13:42.261Z,2264
2017-08-16T06:14:51.798Z,2292
2017-08-16T06:16:00.688Z,2032
2017-08-16T06:17:10.227Z,1884
2017-08-16T06:18:19.442Z,2416
2017-08-16T06:19:28.974Z,3620
2017-08-16T06:20:38.503Z,3800
2017-08-16T06:21:47.710Z,2728
2017-08-16T06:22:57.662Z,3268
2017-08-16T06:24:07.530Z,3116
2017-08-16T06:25:17.389Z,2680
2017-08-16T06:26:27.245Z,2676
2017-08-16T06:27:36.452Z,2296
2017-08-16T06:28:46.190Z,2808
2017-08-16T06:29:56.069Z,2944
2017-08-16T06:31:05.926Z,2248
2017-08-16T06:32:15.162Z,2232
2017-08-16T06:33:24.049Z,1964
2017-08-16T06:34:33.684Z,1848
2017-08-16T06:35:42.912Z,1708
2017-08-16T06:36:52.442Z,2132
2017-08-16T06:38:01.664Z,1928
2017-08-16T06:39:11.519Z,1652
2017-08-16T06:40:20.776Z,2176
2017-08-16T06:41:30.954Z,2360
2017-08-16T06:42:40.483Z,1680
2017-08-16T06:43:49.687Z,1888
2017-08-16T06:44:59.542Z,2268
2017-08-16T06:46:09.505Z,1568
2017-08-16T06:47:19.042Z,1504
2017-08-16T06:48:28.578Z,1512
2017-08-16T06:49:38.430Z,1564
2017-08-16T06:50:48.282Z,1744
2017-08-16T06:51:58.195Z,1760
2017-08-16T06:53:08.082Z,2308
2017-08-16T06:54:16.964Z,2212
2017-08-16T06:55:26.172Z,2340
2017-08-16T06:56:35.706Z,1960
2017-08-16T06:57:45.118Z,1732
2017-08-16T06:58:54.649Z,2116
2017-08-16T07:00:03.858Z,1716
2017-08-16T07:01:13.069Z,1716
2017-08-16T07:02:22.930Z,1956
2017-08-16T07:03:32.616Z,2052
2017-08-16T07:04:42.470Z,1940
2017-08-16T07:05:52.007Z,1820
2017-08-16T07:07:01.230Z,1896
2017-08-16T07:08:11.109Z,1520
2017-08-16T07:09:20.947Z,1408
2017-08-16T07:10:30.156Z,1444
2017-08-16T07:11:40.009Z,1564
2017-08-16T07:12:49.539Z,1808
2017-08-16T07:13:58.750Z,1816
2017-08-16T07:15:07.956Z,1636
2017-08-16T07:16:17.174Z,1684
2017-08-16T07:17:26.389Z,1972
2017-08-16T07:18:35.605Z,1720
2017-08-16T07:19:44.487Z,1684
2017-08-16T07:20:54.541Z,1876
2017-08-16T07:22:04.072Z,1876
2017-08-16T07:23:13.283Z,1900
2017-08-16T07:24:23.134Z,2008
2017-08-16T07:25:32.994Z,1960
2017-08-16T07:26:42.948Z,1920
2017-08-16T07:27:52.813Z,1628
2017-08-16T07:29:02.024Z,2048
2017-08-16T07:30:11.249Z,2052
2017-08-16T07:31:20.812Z,1704
2017-08-16T07:32:30.119Z,1512
2017-08-16T07:33:39.657Z,1388
2017-08-16T07:34:49.847Z,1472
2017-08-16T07:35:59.056Z,1572
2017-08-16T07:37:08.917Z,1528
2017-08-16T07:38:18.552Z,1748
2017-08-16T07:39:28.087Z,2088
2017-08-16T07:40:37.623Z,2268
2017-08-16T07:41:47.152Z,2092
2017-08-16T07:42:56.689Z,2112
2017-08-16T07:44:06.695Z,2884
2017-08-16T07:45:16.229Z,2544
2017-08-16T07:46:25.764Z,3320
2017-08-16T07:47:35.619Z,2688
2017-08-16T07:48:44.830Z,1648
2017-08-16T07:49:54.990Z,1644
2017-08-16T07:51:04.517Z,1824
2017-08-16T07:52:14.046Z,2052
2017-08-16T07:53:23.264Z,1900
2017-08-16T07:54:32.471Z,2620
2017-08-16T07:55:41.826Z,2224
2017-08-16T07:56:51.030Z,2064
2017-08-16T07:58:00.238Z,2028
2017-08-16T07:59:10.421Z,2356
2017-08-16T08:00:20.277Z,2752
2017-08-16T08:01:30.611Z,3064
2017-08-16T08:02:41.112Z,3224
2017-08-16T08:03:50.642Z,3152
2017-08-16T08:05:00.186Z,2780
2017-08-16T08:06:10.049Z,2196
2017-08-16T08:07:19.412Z,1852
2017-08-16T08:08:28.619Z,1832
2017-08-16T08:09:37.837Z,1724
2017-08-16T08:10:47.045Z,2432
2017-08-16T08:11:56.250Z,2376
2017-08-16T08:13:06.266Z,1588
2017-08-16T08:14:16.138Z,1808
2017-08-16T08:15:26.340Z,1812
2017-08-16T08:16:36.518Z,1640
2017-08-16T08:17:46.371Z,1708
2017-08-16T08:18:55.880Z,1748
2017-08-16T08:20:05.413Z,1952
2017-08-16T08:21:14.948Z,2704
2017-08-16T08:22:24.480Z,2728
2017-08-16T08:23:33.363Z,2888
2017-08-16T08:24:43.698Z,3384
2017-08-16T08:25:53.888Z,3436
2017-08-16T08:27:03.443Z,2720
2017-08-16T08:28:13.302Z,2276
2017-08-16T08:29:23.160Z,2720
2017-08-16T08:30:32.518Z,3164
2017-08-16T08:31:41.403Z,2892
2017-08-16T08:32:51.265Z,3056
2017-08-16T08:34:00.801Z,3232
2017-08-16T08:35:10.653Z,3448
2017-08-16T08:36:19.687Z,3836
2017-08-16T08:37:29.232Z,3452
2017-08-16T08:38:39.092Z,4672
2017-08-16T08:39:48.318Z,3780
2017-08-16T08:40:58.176Z,2952
2017-08-16T08:42:07.539Z,2724
2017-08-16T08:43:16.745Z,1800
2017-08-16T08:44:26.277Z,1684
2017-08-16T08:45:35.811Z,1880
2017-08-16T08:46:45.356Z,2368
2017-08-16T08:47:54.768Z,3496
2017-08-16T08:49:04.299Z,4292
2017-08-16T08:50:13.511Z,4528
2017-08-16T08:51:23.040Z,4396
2017-08-16T08:52:32.574Z,3652
2017-08-16T08:53:42.535Z,3376
2017-08-16T08:54:52.122Z,3704
2017-08-16T08:56:01.655Z,3252
2017-08-16T08:57:11.509Z,2076
2017-08-16T08:58:21.699Z,1676
2017-08-16T08:59:31.331Z,1640
2017-08-16T09:00:40.593Z,1804
2017-08-16T09:01:50.462Z,2072
2017-08-16T09:03:00.317Z,2284
2017-08-16T09:04:10.171Z,2572
2017-08-16T09:05:19.717Z,2348
2017-08-16T09:06:29.250Z,2100
2017-08-16T09:07:38.463Z,2124
2017-08-16T09:08:47.993Z,2068
2017-08-16T09:09:57.527Z,2448
2017-08-16T09:11:07.433Z,2700
2017-08-16T09:12:16.319Z,3244
2017-08-16T09:13:25.528Z,3552
2017-08-16T09:14:35.384Z,4056
2017-08-16T09:15:44.291Z,4120
2017-08-16T09:16:53.325Z,3292
2017-08-16T09:18:02.859Z,2952
2017-08-16T09:19:12.074Z,2752
2017-08-16T09:20:21.608Z,3292
2017-08-16T09:21:31.479Z,3720
2017-08-16T09:22:40.414Z,4028
2017-08-16T09:23:49.946Z,4108
2017-08-16T09:24:59.154Z,3036
2017-08-16T09:26:09.016Z,2396
2017-08-16T09:27:18.548Z,2792
2017-08-16T09:28:28.882Z,3880
2017-08-16T09:29:38.093Z,4540
2017-08-16T09:30:47.628Z,4300
2017-08-16T09:31:56.871Z,4272
2017-08-16T09:33:06.730Z,4196
2017-08-16T09:34:16.491Z,4592
2017-08-16T09:35:26.678Z,5736
2017-08-16T09:36:35.889Z,4672
2017-08-16T09:37:45.749Z,4228
2017-08-16T09:38:54.957Z,4036
2017-08-16T09:40:04.642Z,3276
2017-08-16T09:41:14.177Z,2780
2017-08-16T09:42:23.386Z,2280
2017-08-16T09:43:33.238Z,2324
2017-08-16T09:44:42.772Z,2264
2017-08-16T09:45:52.133Z,2356
2017-08-16T09:47:01.347Z,2424
2017-08-16T09:48:10.891Z,2576
2017-08-16T09:49:20.423Z,2384
2017-08-16T09:50:29.632Z,2216
2017-08-16T09:51:39.533Z,2196
2017-08-16T09:52:48.746Z,2280
2017-08-16T09:53:57.630Z,2692
2017-08-16T09:55:07.162Z,2988
2017-08-16T09:56:16.370Z,3080
2017-08-16T09:57:26.712Z,3536
2017-08-16T09:58:35.924Z,4424
2017-08-16T09:59:45.459Z,5200
2017-08-16T10:00:54.993Z,4688
2017-08-16T10:02:04.859Z,4064
2017-08-16T10:03:14.878Z,4044
2017-08-16T10:04:24.423Z,4940
2017-08-16T10:05:34.281Z,5436
2017-08-16T10:06:43.814Z,5452
2017-08-16T10:07:52.701Z,4548
2017-08-16T10:09:02.287Z,3324
2017-08-16T10:10:11.501Z,2732
2017-08-16T10:11:21.032Z,2336
2017-08-16T10:12:30.240Z,2120
2017-08-16T10:13:40.096Z,1984
2017-08-16T10:14:49.778Z,1896
2017-08-16T10:15:59.313Z,2000
2017-08-16T10:17:08.205Z,2240
2017-08-16T10:18:17.100Z,2424
2017-08-16T10:19:26.666Z,2368
2017-08-16T10:20:36.823Z,2156
2017-08-16T10:21:46.360Z,2244
2017-08-16T10:22:55.571Z,2452
2017-08-16T10:24:05.108Z,2720
2017-08-16T10:25:14.336Z,2868
2017-08-16T10:26:24.336Z,3060
2017-08-16T10:27:33.222Z,3540
2017-08-16T10:28:42.756Z,3892
2017-08-16T10:29:52.295Z,4148
2017-08-16T10:31:01.832Z,4412
2017-08-16T10:32:11.291Z,5188
2017-08-16T10:33:20.837Z,5528
2017-08-16T10:34:30.372Z,5784
2017-08-16T10:35:39.584Z,4456
2017-08-16T10:36:49.115Z,3172
2017-08-16T10:37:58.702Z,2344
2017-08-16T10:39:07.912Z,2284
2017-08-16T10:40:17.770Z,2640
2017-08-16T10:41:27.304Z,3144
2017-08-16T10:42:36.191Z,2648
2017-08-16T10:43:46.096Z,2744
2017-08-16T10:44:55.308Z,2652
2017-08-16T10:46:04.192Z,2868
2017-08-16T10:47:13.728Z,3352
2017-08-16T10:48:22.621Z,4380
2017-08-16T10:49:31.878Z,5196
2017-08-16T10:50:41.095Z,5292
2017-08-16T10:51:50.315Z,5636
2017-08-16T10:52:59.850Z,6476
2017-08-16T10:54:09.710Z,6000
2017-08-16T10:55:19.017Z,4356
2017-08-16T10:56:28.229Z,3600
2017-08-16T10:57:38.084Z,3216
2017-08-16T10:58:47.754Z,3108
2017-08-16T10:59:57.065Z,3284
2017-08-16T11:01:07.469Z,3192
2017-08-16T11:02:17.907Z,2868
2017-08-16T11:03:28.051Z,2800
2017-08-16T11:04:37.851Z,2796
2017-08-16T11:05:47.109Z,2860
2017-08-16T11:06:57.262Z,2844
2017-08-16T11:08:07.525Z,2848
2017-08-16T11:09:17.495Z,2944
2017-08-16T11:10:27.065Z,3052
2017-08-16T11:11:36.640Z,3420
2017-08-16T11:12:46.664Z,4152
2017-08-16T11:13:57.351Z,5192
2017-08-16T11:15:06.565Z,6632
2017-08-16T11:16:16.769Z,7676
2017-08-16T11:17:27.229Z,8108
2017-08-16T11:19:07.091Z,6696
2017-08-16T11:20:16.043Z,5352
2017-08-16T11:21:25.797Z,4724
2017-08-16T11:22:35.863Z,5172
2017-08-16T11:23:45.276Z,5624
2017-08-16T11:24:55.128Z,5076
2017-08-16T11:26:04.750Z,5160
2017-08-16T11:27:15.197Z,4480
2017-08-16T11:28:24.838Z,4336
2017-08-16T11:29:34.131Z,4844
2017-08-16T11:30:43.724Z,4588
2017-08-16T11:31:53.805Z,5480
2017-08-16T11:33:03.101Z,5364
2017-08-16T11:34:13.267Z,5176
2017-08-16T11:35:52.317Z,6348
2017-08-16T11:37:01.604Z,5824
2017-08-16T11:38:12.173Z,5552
2017-08-16T11:39:21.253Z,6424
2017-08-16T11:40:30.718Z,6600
2017-08-16T11:41:40.739Z,6576
2017-08-16T11:42:51.204Z,5836
2017-08-16T11:44:02.359Z,5404
2017-08-16T11:45:11.927Z,4920
2017-08-16T11:46:22.909Z,5552
2017-08-16T11:47:32.864Z,7316
2017-08-16T11:48:44.544Z,8164
2017-08-16T11:49:55.529Z,9412
2017-08-16T11:51:06.965Z,9324
2017-08-16T11:52:16.355Z,7252
2017-08-16T11:53:25.656Z,7192
2017-08-16T11:54:35.759Z,7612
2017-08-16T11:55:46.979Z,8488
2017-08-16T11:56:57.353Z,7956
2017-08-16T11:58:07.163Z,7344
2017-08-16T11:59:16.710Z,7956
2017-08-16T12:00:25.907Z,10468
2017-08-16T12:01:34.866Z,50752
2017-08-16T12:02:44.498Z,6852
2017-08-16T12:03:54.549Z,7136
2017-08-16T12:05:03.888Z,6540
2017-08-16T12:06:14.544Z,5912
2017-08-16T12:07:24.080Z,5752
2017-08-16T12:08:33.662Z,6040
2017-08-16T12:09:42.683Z,6900
2017-08-16T12:10:53.414Z,7208
2017-08-16T12:12:03.649Z,7640
2017-08-16T12:13:13.682Z,9160
2017-08-16T12:14:23.590Z,9516
2017-08-16T12:15:33.428Z,22720
2017-08-16T12:16:42.967Z,22496
2017-08-16T12:17:51.883Z,8380
2017-08-16T12:19:01.428Z,6312
2017-08-16T12:20:10.974Z,6828
2017-08-16T12:21:21.140Z,7332
2017-08-16T12:22:30.361Z,50528
2017-08-16T12:23:40.559Z,6764
2017-08-16T12:24:50.108Z,6120
2017-08-16T12:25:59.654Z,6416
2017-08-16T12:27:09.614Z,6660
2017-08-16T12:28:18.825Z,6636
2017-08-16T12:29:27.713Z,7076
2017-08-16T12:30:37.571Z,8108
2017-08-16T12:31:46.796Z,17024
2017-08-16T12:32:56.806Z,10056
2017-08-16T12:34:06.343Z,9892
2017-08-16T12:35:16.200Z,12748
2017-08-16T12:36:25.738Z,12996
2017-08-16T12:37:35.277Z,21120
2017-08-16T12:38:44.650Z,20416
2017-08-16T12:39:54.191Z,18080
2017-08-16T12:41:03.737Z,25088
2017-08-16T12:42:12.954Z,10796
2017-08-16T12:43:22.813Z,53216
2017-08-16T12:44:32.402Z,36960
2017-08-16T12:45:41.617Z,8012
2017-08-16T12:46:51.160Z,7040
2017-08-16T12:48:00.697Z,7240
2017-08-16T12:49:10.558Z,7644
2017-08-16T12:50:20.296Z,8156
2017-08-16T12:51:29.510Z,9012
2017-08-16T12:52:39.053Z,11244
2017-08-16T12:53:48.921Z,11576
2017-08-16T12:54:58.457Z,7584
2017-08-16T12:56:07.819Z,6708
2017-08-16T12:57:17.681Z,6196
2017-08-16T12:58:26.577Z,6172
2017-08-16T12:59:35.469Z,5724
2017-08-16T13:00:44.365Z,6244
2017-08-16T13:01:54.057Z,7308
2017-08-16T13:03:03.621Z,8740
2017-08-16T13:04:12.850Z,20864
2017-08-16T13:05:22.065Z,37120
2017-08-16T13:06:31.611Z,34240
2017-08-16T13:07:41.802Z,22912
2017-08-16T13:08:50.708Z,9560
2017-08-16T13:09:59.935Z,11188
2017-08-16T13:11:09.794Z,17664
2017-08-16T13:12:19.008Z,14436
2017-08-16T13:13:28.056Z,14628
2017-08-16T13:14:37.279Z,11868
2017-08-16T13:15:46.502Z,11640
2017-08-16T13:16:55.720Z,12596
2017-08-16T13:18:05.279Z,15996
2017-08-16T13:19:14.545Z,41600
2017-08-16T13:20:23.445Z,34368
2017-08-16T13:21:32.992Z,31072
2017-08-16T13:22:42.209Z,17824
2017-08-16T13:23:51.103Z,13192
2017-08-16T13:25:01.028Z,47616
2017-08-16T13:26:10.490Z,52864
2017-08-16T13:27:20.079Z,53728
2017-08-16T13:28:29.979Z,11520
2017-08-16T13:29:39.525Z,16064
2017-08-16T13:30:49.420Z,41216
2017-08-16T13:31:58.959Z,50144
2017-08-16T13:33:09.152Z,52864
2017-08-16T13:34:18.692Z,52416
2017-08-16T13:35:28.234Z,60032
2017-08-16T13:36:37.614Z,61408
2017-08-16T13:37:47.164Z,50976
2017-08-16T13:38:56.404Z,26496
2017-08-16T13:40:05.625Z,23136
2017-08-16T13:41:15.169Z,20896
2017-08-16T13:42:25.124Z,28160
2017-08-16T13:43:34.669Z,19616
2017-08-16T13:44:44.213Z,14052
2017-08-16T13:45:53.756Z,17600
2017-08-16T13:47:02.649Z,25824
2017-08-16T13:48:12.897Z,46016
2017-08-16T13:49:22.143Z,58336
2017-08-16T13:50:32.333Z,57888
2017-08-16T13:51:41.605Z,66016
2017-08-16T13:52:50.836Z,59008
2017-08-16T13:54:00.067Z,50976
2017-08-16T13:55:09.936Z,34208
2017-08-16T13:56:19.808Z,45920
2017-08-16T13:57:29.036Z,58880
2017-08-16T13:58:38.922Z,53888
2017-08-16T13:59:47.930Z,40320
2017-08-16T14:00:57.473Z,39808
2017-08-16T14:02:06.698Z,52960
2017-08-16T14:03:15.924Z,62176
2017-08-16T14:04:25.161Z,60576
2017-08-16T14:05:35.367Z,64960
2017-08-16T14:06:45.277Z,65728
2017-08-16T14:07:55.160Z,66752
2017-08-16T14:09:04.714Z,51232
2017-08-16T14:10:14.268Z,62112
2017-08-16T14:11:23.817Z,26400
2017-08-16T14:12:33.042Z,23872
2017-08-16T14:13:42.596Z,55776
2017-08-16T14:14:51.501Z,55840
2017-08-16T14:16:01.106Z,25856
2017-08-16T14:17:10.667Z,39712
2017-08-16T14:18:20.225Z,59424
2017-08-16T14:19:29.455Z,58624
2017-08-16T14:20:39.047Z,58720
2017-08-16T14:21:48.925Z,57088
2017-08-16T14:22:58.161Z,55424
2017-08-16T14:24:07.750Z,53728
2017-08-16T14:25:17.349Z,54208
2017-08-16T14:26:27.553Z,50816
2017-08-16T14:27:37.445Z,50816
2017-08-16T14:28:47.004Z,48096
2017-08-16T14:29:56.556Z,9352
2017-08-16T14:31:06.459Z,7456
2017-08-16T14:32:16.021Z,7868
2017-08-16T14:33:25.245Z,8760
2017-08-16T14:34:35.452Z,8968
2017-08-16T14:35:44.678Z,9492
2017-08-16T14:36:54.272Z,15872
2017-08-16T14:38:03.500Z,9052
2017-08-16T14:39:13.049Z,8392
2017-08-16T14:40:23.244Z,7888
2017-08-16T14:41:33.121Z,7164
2017-08-16T14:42:42.391Z,7620
2017-08-16T14:43:51.960Z,26464
2017-08-16T14:45:01.504Z,28032
2017-08-16T14:46:11.054Z,28416
2017-08-16T14:47:19.964Z,30720
2017-08-16T14:48:29.669Z,31936
2017-08-16T14:49:39.224Z,25344
2017-08-16T14:50:48.449Z,27360
2017-08-16T14:51:57.351Z,31680
2017-08-16T14:53:06.575Z,33184
2017-08-16T14:54:16.171Z,29888
2017-08-16T14:55:25.722Z,26944
2017-08-16T14:56:35.109Z,25504
2017-08-16T14:57:44.329Z,22912
2017-08-16T14:58:53.553Z,24320
2017-08-16T15:00:02.867Z,23296
2017-08-16T15:01:13.061Z,16896
2017-08-16T15:02:22.284Z,23808
2017-08-16T15:03:31.515Z,24672
2017-08-16T15:04:40.748Z,19968
2017-08-16T15:05:50.671Z,15028
2017-08-16T15:07:00.213Z,11288
2017-08-16T15:08:09.759Z,9764
2017-08-16T15:09:19.636Z,9416
2017-08-16T15:10:29.249Z,10468
2017-08-16T15:11:38.617Z,8984
2017-08-16T15:12:48.481Z,9896
2017-08-16T15:13:58.030Z,9672
2017-08-16T15:15:07.901Z,12028
2017-08-16T15:16:17.123Z,12412
2017-08-16T15:17:26.170Z,9796
2017-08-16T15:18:35.711Z,9136
2017-08-16T15:19:45.604Z,8668
2017-08-16T15:20:55.155Z,9304
2017-08-16T15:22:04.712Z,13612
2017-08-16T15:23:14.892Z,17824
2017-08-16T15:24:24.759Z,23424
2017-08-16T15:25:33.662Z,12736
2017-08-16T15:26:43.525Z,10796
2017-08-16T15:27:53.081Z,8760
2017-08-16T15:29:02.925Z,8120
2017-08-16T15:30:12.464Z,7984
2017-08-16T15:31:21.681Z,7560
2017-08-16T15:32:31.508Z,6924
2017-08-16T15:33:41.664Z,6764
2017-08-16T15:34:50.617Z,6532
2017-08-16T15:36:00.160Z,6412
2017-08-16T15:37:10.413Z,5988
2017-08-16T15:38:20.583Z,5696
2017-08-16T15:39:31.117Z,5448
2017-08-16T15:40:40.432Z,5268
2017-08-16T15:41:49.371Z,5104
2017-08-16T15:42:59.569Z,4952
2017-08-16T15:44:09.021Z,4820
2017-08-16T15:45:19.030Z,4836
2017-08-16T15:46:29.126Z,5216
2017-08-16T15:47:39.007Z,5596
2017-08-16T15:48:49.209Z,5056